Private Wetterstation Sandau
Wetterdaten: Mittwoch, 23.05.2012
Datum Zeit Temp. A. Feuchte A. Luftdruck Regen Wind Richtung Richtung Taupunkt Windchill
23.05.2012 00:01 20,7 C 69 % 1014,7 hPa 0,0 l/m 2,2 km/h (1 Bft) N-NO 22 14,8 C 20,7 C
23.05.2012 00:06 20,6 C 69 % 1014,6 hPa 0,0 l/m 0,0 km/h (0 Bft) O-NO 67 14,7 C 20,6 C
23.05.2012 00:11 20,5 C 70 % 1014,8 hPa 0,0 l/m 3,6 km/h (1 Bft) O 90 14,8 C 20,5 C
23.05.2012 00:16 20,4 C 70 % 1014,8 hPa 0,0 l/m 3,6 km/h (1 Bft) O 90 14,7 C 20,4 C
23.05.2012 00:21 20,4 C 70 % 1014,9 hPa 0,0 l/m 4,0 km/h (1 Bft) NO 45 14,7 C 20,4 C
23.05.2012 00:26 20,3 C 69 % 1015,0 hPa 0,0 l/m 3,2 km/h (1 Bft) N-NO 22 14,4 C 20,3 C
23.05.2012 00:31 20,1 C 70 % 1015,1 hPa 0,0 l/m 4,3 km/h (1 Bft) N 360 14,5 C 20,1 C
23.05.2012 00:36 20,0 C 70 % 1015,0 hPa 0,0 l/m 6,1 km/h (2 Bft) O 90 14,4 C 20,0 C
23.05.2012 00:41 19,9 C 69 % 1015,2 hPa 0,0 l/m 4,0 km/h (1 Bft) N-NO 22 14,0 C 19,9 C
23.05.2012 00:46 19,8 C 69 % 1015,3 hPa 0,0 l/m 2,9 km/h (1 Bft) O 90 13,9 C 19,8 C
23.05.2012 00:51 19,7 C 69 % 1015,3 hPa 0,0 l/m 8,3 km/h (2 Bft) O 90 13,8 C 19,7 C
23.05.2012 00:56 19,5 C 69 % 1015,4 hPa 0,0 l/m 2,5 km/h (1 Bft) NO 45 13,7 C 19,5 C
23.05.2012 01:01 19,4 C 69 % 1015,5 hPa 0,0 l/m 2,9 km/h (1 Bft) N-NO 22 13,6 C 19,4 C
23.05.2012 01:06 19,3 C 69 % 1015,5 hPa 0,0 l/m 2,5 km/h (1 Bft) SO 135 13,5 C 19,3 C
23.05.2012 01:11 19,1 C 69 % 1015,4 hPa 0,0 l/m 4,3 km/h (1 Bft) O 90 13,3 C 19,1 C
23.05.2012 01:16 18,9 C 69 % 1015,4 hPa 0,0 l/m 11,2 km/h (2 Bft) O 90 13,1 C 18,9 C
23.05.2012 01:21 18,6 C 69 % 1015,4 hPa 0,0 l/m 2,9 km/h (1 Bft) NO 45 12,8 C 18,6 C
23.05.2012 01:26 18,4 C 70 % 1015,6 hPa 0,0 l/m 5,4 km/h (1 Bft) O 90 12,8 C 18,4 C
23.05.2012 01:31 18,3 C 70 % 1015,5 hPa 0,0 l/m 2,2 km/h (1 Bft) NO 45 12,7 C 18,3 C
23.05.2012 01:36 18,2 C 70 % 1015,7 hPa 0,0 l/m 4,3 km/h (1 Bft) O 90 12,6 C 18,2 C
23.05.2012 01:41 18,1 C 71 % 1015,5 hPa 0,0 l/m 2,9 km/h (1 Bft) O-NO 67 12,8 C 18,1 C
23.05.2012 01:46 17,9 C 71 % 1015,4 hPa 0,0 l/m 3,2 km/h (1 Bft) O-NO 67 12,6 C 17,9 C
23.05.2012 01:51 17,8 C 71 % 1015,5 hPa 0,0 l/m 2,9 km/h (1 Bft) O-NO 67 12,5 C 17,8 C
23.05.2012 01:56 17,8 C 72 % 1015,5 hPa 0,0 l/m 5,0 km/h (1 Bft) N-NO 22 12,7 C 17,8 C
23.05.2012 02:01 17,7 C 72 % 1015,5 hPa 0,0 l/m 0,0 km/h (0 Bft) O-NO 67 12,6 C 17,7 C
23.05.2012 02:06 17,6 C 72 % 1015,5 hPa 0,0 l/m 2,5 km/h (1 Bft) N-NO 22 12,5 C 17,6 C
23.05.2012 02:11 17,6 C 72 % 1015,6 hPa 0,0 l/m 4,0 km/h (1 Bft) O-NO 67 12,5 C 17,6 C
23.05.2012 02:16 17,5 C 72 % 1015,8 hPa 0,0 l/m 2,2 km/h (1 Bft) O-NO 67 12,4 C 17,5 C
23.05.2012 02:21 17,4 C 72 % 1015,8 hPa 0,0 l/m 4,0 km/h (1 Bft) NO 45 12,3 C 17,4 C
23.05.2012 02:26 17,4 C 73 % 1015,8 hPa 0,0 l/m 2,9 km/h (1 Bft) N-NO 22 12,5 C 17,4 C
23.05.2012 02:31 17,3 C 73 % 1015,9 hPa 0,0 l/m 5,0 km/h (1 Bft) N-NO 22 12,4 C 17,3 C
23.05.2012 02:36 17,2 C 73 % 1015,9 hPa 0,0 l/m 4,0 km/h (1 Bft) O 90 12,3 C 17,2 C
23.05.2012 02:41 17,1 C 74 % 1015,9 hPa 0,0 l/m 2,5 km/h (1 Bft) O 90 12,4 C 17,1 C
23.05.2012 02:46 17,1 C 74 % 1016,0 hPa 0,0 l/m 3,2 km/h (1 Bft) O-NO 67 12,4 C 17,1 C
23.05.2012 02:51 17,0 C 74 % 1016,0 hPa 0,0 l/m 3,6 km/h (1 Bft) NO 45 12,3 C 17,0 C
23.05.2012 02:56 16,9 C 74 % 1016,2 hPa 0,0 l/m 2,5 km/h (1 Bft) N 360 12,2 C 16,9 C
23.05.2012 03:01 16,9 C 74 % 1016,2 hPa 0,0 l/m 2,2 km/h (1 Bft) NO 45 12,2 C 16,9 C
23.05.2012 03:06 16,9 C 75 % 1016,3 hPa 0,0 l/m 3,6 km/h (1 Bft) NO 45 12,4 C 16,9 C
23.05.2012 03:11 16,8 C 75 % 1016,2 hPa 0,0 l/m 1,4 km/h (1 Bft) O-NO 67 12,3 C 16,8 C
23.05.2012 03:16 16,8 C 75 % 1016,3 hPa 0,0 l/m 4,0 km/h (1 Bft) NO 45 12,3 C 16,8 C
23.05.2012 03:21 16,8 C 75 % 1016,5 hPa 0,0 l/m 0,0 km/h (0 Bft) O-NO 67 12,3 C 16,8 C
23.05.2012 03:26 16,9 C 75 % 1016,6 hPa 0,0 l/m 0,0 km/h (0 Bft) S-SW 202 12,4 C 16,9 C
23.05.2012 03:31 17,1 C 74 % 1016,8 hPa 0,0 l/m 2,5 km/h (1 Bft) S-SW 202 12,4 C 17,1 C
23.05.2012 03:36 17,3 C 74 % 1016,7 hPa 0,0 l/m 0,0 km/h (0 Bft) N-NW 337 12,6 C 17,3 C
23.05.2012 03:41 17,3 C 74 % 1016,7 hPa 0,0 l/m 2,2 km/h (1 Bft) N-NO 22 12,6 C 17,3 C
23.05.2012 03:46 17,1 C 74 % 1016,9 hPa 0,0 l/m 0,0 km/h (0 Bft) SW 225 12,4 C 17,1 C
23.05.2012 03:51 17,0 C 74 % 1016,8 hPa 0,0 l/m 0,0 km/h (0 Bft) NO 45 12,3 C 17,0 C
23.05.2012 03:56 17,0 C 74 % 1016,8 hPa 0,0 l/m 2,5 km/h (1 Bft) NW 315 12,3 C 17,0 C
23.05.2012 04:01 17,0 C 75 % 1017,0 hPa 0,0 l/m 4,0 km/h (1 Bft) N-NO 22 12,5 C 17,0 C
23.05.2012 04:06 16,8 C 75 % 1017,1 hPa 0,0 l/m 1,1 km/h (1 Bft) N-NO 22 12,3 C 16,8 C
23.05.2012 04:11 16,5 C 76 % 1016,9 hPa 0,0 l/m 2,2 km/h (1 Bft) NO 45 12,3 C 16,5 C
23.05.2012 04:16 16,3 C 77 % 1017,1 hPa 0,0 l/m 2,2 km/h (1 Bft) NO 45 12,3 C 16,3 C
23.05.2012 04:21 16,2 C 77 % 1017,2 hPa 0,0 l/m 0,0 km/h (0 Bft) O-NO 67 12,2 C 16,2 C
23.05.2012 04:26 16,1 C 77 % 1017,0 hPa 0,0 l/m 2,5 km/h (1 Bft) N-NO 22 12,1 C 16,1 C
23.05.2012 04:31 16,1 C 77 % 1017,1 hPa 0,0 l/m 2,5 km/h (1 Bft) N 360 12,1 C 16,1 C
23.05.2012 04:36 15,9 C 77 % 1017,1 hPa 0,0 l/m 1,8 km/h (1 Bft) N-NO 22 11,9 C 15,9 C
23.05.2012 04:41 15,9 C 78 % 1017,2 hPa 0,0 l/m 5,4 km/h (1 Bft) N-NO 22 12,1 C 15,9 C
23.05.2012 04:46 15,8 C 78 % 1017,1 hPa 0,0 l/m 0,0 km/h (0 Bft) N 360 12,0 C 15,8 C
23.05.2012 04:51 15,9 C 78 % 1017,1 hPa 0,0 l/m 1,8 km/h (1 Bft) NO 45 12,1 C 15,9 C
23.05.2012 04:56 15,8 C 78 % 1017,3 hPa 0,0 l/m 0,0 km/h (0 Bft) N-NO 22 12,0 C 15,8 C
23.05.2012 05:01 15,8 C 78 % 1017,3 hPa 0,0 l/m 2,5 km/h (1 Bft) NO 45 12,0 C 15,8 C
23.05.2012 05:06 15,7 C 79 % 1017,5 hPa 0,0 l/m 3,2 km/h (1 Bft) N-NO 22 12,1 C 15,7 C
23.05.2012 05:11 15,6 C 79 % 1017,6 hPa 0,0 l/m 5,0 km/h (1 Bft) N-NO 22 12,0 C 15,6 C
23.05.2012 05:16 15,7 C 79 % 1017,7 hPa 0,0 l/m 1,1 km/h (1 Bft) NO 45 12,1 C 15,7 C
23.05.2012 05:21 15,8 C 79 % 1017,6 hPa 0,0 l/m 4,3 km/h (1 Bft) NO 45 12,2 C 15,8 C
23.05.2012 05:26 15,8 C 79 % 1017,8 hPa 0,0 l/m 0,0 km/h (0 Bft) N-NW 337 12,2 C 15,8 C
23.05.2012 05:31 15,9 C 79 % 1018,1 hPa 0,0 l/m 0,0 km/h (0 Bft) N-NW 337 12,3 C 15,9 C
23.05.2012 05:36 16,1 C 79 % 1018,0 hPa 0,0 l/m 1,1 km/h (1 Bft) N-NO 22 12,5 C 16,1 C
23.05.2012 05:41 16,1 C 78 % 1017,9 hPa 0,0 l/m 2,9 km/h (1 Bft) N-NO 22 12,3 C 16,1 C
23.05.2012 05:46 16,1 C 78 % 1018,0 hPa 0,0 l/m 4,0 km/h (1 Bft) N-NO 22 12,3 C 16,1 C
23.05.2012 05:51 16,1 C 78 % 1018,0 hPa 0,0 l/m 3,2 km/h (1 Bft) N 360 12,3 C 16,1 C
23.05.2012 05:56 16,1 C 78 % 1018,0 hPa 0,0 l/m 2,9 km/h (1 Bft) N-NO 22 12,3 C 16,1 C
23.05.2012 06:01 16,1 C 78 % 1018,3 hPa 0,0 l/m 2,9 km/h (1 Bft) O 90 12,3 C 16,1 C
23.05.2012 06:06 16,1 C 78 % 1018,3 hPa 0,0 l/m 2,9 km/h (1 Bft) N-NO 22 12,3 C 16,1 C
23.05.2012 06:11 16,1 C 78 % 1018,4 hPa 0,0 l/m 2,2 km/h (1 Bft) O-NO 67 12,3 C 16,1 C
23.05.2012 06:16 16,1 C 78 % 1018,2 hPa 0,0 l/m 4,0 km/h (1 Bft) NO 45 12,3 C 16,1 C
23.05.2012 06:21 16,2 C 79 % 1018,2 hPa 0,0 l/m 4,7 km/h (1 Bft) N-NO 22 12,6 C 16,2 C
23.05.2012 06:26 16,3 C 79 % 1018,4 hPa 0,0 l/m 0,0 km/h (0 Bft) N-NO 22 12,6 C 16,3 C
23.05.2012 06:31 16,5 C 78 % 1018,4 hPa 0,0 l/m 0,0 km/h (0 Bft) NO 45 12,6 C 16,5 C
23.05.2012 06:36 16,7 C 78 % 1018,4 hPa 0,0 l/m 4,7 km/h (1 Bft) O 90 12,8 C 16,7 C
23.05.2012 06:41 16,9 C 77 % 1018,4 hPa 0,0 l/m 3,2 km/h (1 Bft) O 90 12,8 C 16,9 C
23.05.2012 06:46 17,0 C 77 % 1018,5 hPa 0,0 l/m 7,6 km/h (2 Bft) O-NO 67 12,9 C 17,0 C
23.05.2012 06:51 17,3 C 77 % 1018,6 hPa 0,0 l/m 7,9 km/h (2 Bft) O 90 13,2 C 17,3 C
23.05.2012 06:56 17,4 C 76 % 1018,5 hPa 0,0 l/m 8,6 km/h (2 Bft) O-NO 67 13,1 C 17,4 C
23.05.2012 07:01 17,6 C 76 % 1018,5 hPa 0,0 l/m 11,9 km/h (2 Bft) O-NO 67 13,3 C 17,6 C
23.05.2012 07:06 17,9 C 75 % 1018,4 hPa 0,0 l/m 4,3 km/h (1 Bft) O-NO 67 13,4 C 17,9 C
23.05.2012 07:11 18,1 C 75 % 1018,5 hPa 0,0 l/m 6,1 km/h (2 Bft) O-SO 112 13,6 C 18,1 C
23.05.2012 07:16 18,4 C 74 % 1018,7 hPa 0,0 l/m 5,0 km/h (1 Bft) O-SO 112 13,7 C 18,4 C
23.05.2012 07:21 18,7 C 73 % 1018,8 hPa 0,0 l/m 4,0 km/h (1 Bft) NO 45 13,8 C 18,7 C
23.05.2012 07:26 18,9 C 72 % 1018,7 hPa 0,0 l/m 3,2 km/h (1 Bft) O-NO 67 13,7 C 18,9 C
23.05.2012 07:31 19,1 C 72 % 1018,7 hPa 0,0 l/m 1,4 km/h (1 Bft) O-SO 112 13,9 C 19,1 C
23.05.2012 07:36 19,4 C 71 % 1018,7 hPa 0,0 l/m 0,0 km/h (0 Bft) SO 135 14,0 C 19,4 C
23.05.2012 07:41 19,6 C 70 % 1018,7 hPa 0,0 l/m 4,0 km/h (1 Bft) O 90 14,0 C 19,6 C
23.05.2012 07:46 19,9 C 70 % 1018,7 hPa 0,0 l/m 4,3 km/h (1 Bft) O 90 14,3 C 19,9 C
23.05.2012 07:51 20,2 C 69 % 1018,7 hPa 0,0 l/m 2,9 km/h (1 Bft) O 90 14,3 C 20,2 C
23.05.2012 07:56 20,3 C 69 % 1018,9 hPa 0,0 l/m 0,0 km/h (0 Bft) O 90 14,4 C 20,3 C
23.05.2012 08:01 20,4 C 67 % 1018,9 hPa 0,0 l/m 4,7 km/h (1 Bft) O-NO 67 14,1 C 20,4 C
23.05.2012 08:06 20,4 C 67 % 1019,0 hPa 0,0 l/m 2,9 km/h (1 Bft) O-NO 67 14,1 C 20,4 C
23.05.2012 08:11 20,5 C 67 % 1018,9 hPa 0,0 l/m 4,3 km/h (1 Bft) O 90 14,2 C 20,5 C
23.05.2012 08:16 20,6 C 67 % 1019,0 hPa 0,0 l/m 7,6 km/h (2 Bft) O 90 14,3 C 20,6 C
23.05.2012 08:21 20,7 C 66 % 1019,2 hPa 0,0 l/m 5,8 km/h (2 Bft) O-NO 67 14,1 C 20,7 C
23.05.2012 08:26 20,8 C 66 % 1019,3 hPa 0,0 l/m 7,2 km/h (2 Bft) N-NO 22 14,2 C 20,8 C
23.05.2012 08:31 20,9 C 66 % 1019,3 hPa 0,0 l/m 5,0 km/h (1 Bft) O-NO 67 14,3 C 20,9 C
23.05.2012 08:36 21,1 C 66 % 1019,4 hPa 0,0 l/m 6,1 km/h (2 Bft) NO 45 14,5 C 21,1 C
23.05.2012 08:41 21,3 C 66 % 1019,6 hPa 0,0 l/m 6,5 km/h (2 Bft) NO 45 14,7 C 21,3 C
23.05.2012 08:46 21,3 C 66 % 1019,7 hPa 0,0 l/m 3,2 km/h (1 Bft) O-SO 112 14,7 C 21,3 C
23.05.2012 08:51 21,4 C 66 % 1019,8 hPa 0,0 l/m 5,4 km/h (1 Bft) N-NO 22 14,8 C 21,4 C
23.05.2012 08:56 21,4 C 66 % 1019,7 hPa 0,0 l/m 7,6 km/h (2 Bft) O-NO 67 14,8 C 21,4 C
23.05.2012 09:01 21,6 C 66 % 1019,9 hPa 0,0 l/m 4,3 km/h (1 Bft) O-NO 67 15,0 C 21,6 C
23.05.2012 09:06 21,6 C 65 % 1020,0 hPa 0,0 l/m 2,9 km/h (1 Bft) O-NO 67 14,7 C 21,6 C
23.05.2012 09:11 21,8 C 64 % 1020,0 hPa 0,0 l/m 6,5 km/h (2 Bft) NO 45 14,7 C 21,8 C
23.05.2012 09:16 21,9 C 64 % 1020,1 hPa 0,0 l/m 3,6 km/h (1 Bft) O-SO 112 14,8 C 21,9 C
23.05.2012 09:21 21,9 C 64 % 1020,2 hPa 0,0 l/m 2,5 km/h (1 Bft) O 90 14,8 C 21,9 C
23.05.2012 09:26 21,9 C 63 % 1020,2 hPa 0,0 l/m 5,0 km/h (1 Bft) N-NO 22 14,5 C 21,9 C
23.05.2012 09:31 22,1 C 63 % 1020,2 hPa 0,0 l/m 7,6 km/h (2 Bft) O 90 14,7 C 22,1 C
23.05.2012 09:36 22,2 C 63 % 1020,3 hPa 0,0 l/m 4,0 km/h (1 Bft) O-SO 112 14,8 C 22,2 C
23.05.2012 09:41 22,3 C 63 % 1020,3 hPa 0,0 l/m 4,0 km/h (1 Bft) O-NO 67 14,9 C 22,3 C
23.05.2012 09:46 22,4 C 62 % 1020,4 hPa 0,0 l/m 3,2 km/h (1 Bft) O 90 14,8 C 22,4 C
23.05.2012 09:51 22,5 C 62 % 1020,4 hPa 0,0 l/m 9,4 km/h (2 Bft) O-NO 67 14,8 C 22,5 C
23.05.2012 09:56 22,6 C 62 % 1020,4 hPa 0,0 l/m 8,6 km/h (2 Bft) O 90 14,9 C 22,6 C
23.05.2012 10:01 22,7 C 62 % 1020,5 hPa 0,0 l/m 2,2 km/h (1 Bft) NO 45 15,0 C 22,7 C
23.05.2012 10:06 22,9 C 62 % 1020,7 hPa 0,0 l/m 11,2 km/h (2 Bft) O-NO 67 15,2 C 22,9 C
23.05.2012 10:11 22,9 C 62 % 1020,6 hPa 0,0 l/m 8,3 km/h (2 Bft) O 90 15,2 C 22,9 C
23.05.2012 10:16 23,2 C 61 % 1020,8 hPa 0,0 l/m 5,8 km/h (2 Bft) O-NO 67 15,3 C 23,2 C
23.05.2012 10:21 23,4 C 61 % 1020,7 hPa 0,0 l/m 6,8 km/h (2 Bft) O 90 15,4 C 23,4 C
23.05.2012 10:26 23,6 C 60 % 1020,9 hPa 0,0 l/m 6,1 km/h (2 Bft) O 90 15,4 C 23,6 C
23.05.2012 10:31 23,9 C 60 % 1020,9 hPa 0,0 l/m 4,7 km/h (1 Bft) NO 45 15,7 C 23,9 C
23.05.2012 10:36 23,9 C 59 % 1021,1 hPa 0,0 l/m 6,5 km/h (2 Bft) O-NO 67 15,4 C 23,9 C
23.05.2012 10:41 24,1 C 59 % 1021,1 hPa 0,0 l/m 7,6 km/h (2 Bft) O 90 15,6 C 24,1 C
23.05.2012 10:46 24,3 C 59 % 1021,1 hPa 0,0 l/m 7,6 km/h (2 Bft) N-NO 22 15,8 C 24,3 C
23.05.2012 10:51 24,4 C 58 % 1021,0 hPa 0,0 l/m 2,5 km/h (1 Bft) N 360 15,6 C 24,4 C
23.05.2012 10:56 24,6 C 58 % 1021,1 hPa 0,0 l/m 3,6 km/h (1 Bft) N-NO 22 15,8 C 24,6 C
23.05.2012 11:01 24,7 C 58 % 1021,1 hPa 0,0 l/m 3,6 km/h (1 Bft) O-NO 67 15,9 C 24,7 C
23.05.2012 11:06 25,0 C 59 % 1021,1 hPa 0,0 l/m 5,8 km/h (2 Bft) O-NO 67 16,4 C 25,0 C
23.05.2012 11:11 25,4 C 57 % 1021,1 hPa 0,0 l/m 8,3 km/h (2 Bft) N-NO 22 16,2 C 25,4 C
23.05.2012 11:16 25,6 C 55 % 1021,1 hPa 0,0 l/m 5,4 km/h (1 Bft) O-SO 112 15,9 C 25,6 C
23.05.2012 11:21 25,6 C 55 % 1021,1 hPa 0,0 l/m 6,5 km/h (2 Bft) N-NO 22 15,9 C 25,6 C
23.05.2012 11:26 25,6 C 56 % 1021,2 hPa 0,0 l/m 4,3 km/h (1 Bft) O-NO 67 16,2 C 25,6 C
23.05.2012 11:31 25,7 C 55 % 1021,1 hPa 0,0 l/m 4,0 km/h (1 Bft) O 90 16,0 C 25,7 C
23.05.2012 11:36 25,9 C 54 % 1021,2 hPa 0,0 l/m 4,3 km/h (1 Bft) NO 45 15,9 C 25,9 C
23.05.2012 11:41 26,2 C 53 % 1021,1 hPa 0,0 l/m 5,4 km/h (1 Bft) NO 45 15,8 C 26,2 C
23.05.2012 11:46 26,4 C 53 % 1021,2 hPa 0,0 l/m 6,1 km/h (2 Bft) NO 45 16,0 C 26,4 C
23.05.2012 11:51 26,5 C 53 % 1021,2 hPa 0,0 l/m 3,2 km/h (1 Bft) O-SO 112 16,1 C 26,5 C
23.05.2012 11:56 26,7 C 51 % 1021,4 hPa 0,0 l/m 1,4 km/h (1 Bft) N 360 15,7 C 26,7 C
23.05.2012 12:01 26,9 C 51 % 1021,4 hPa 0,0 l/m 8,3 km/h (2 Bft) O-SO 112 15,9 C 26,9 C
23.05.2012 12:06 27,2 C 49 % 1021,3 hPa 0,0 l/m 3,6 km/h (1 Bft) O-NO 67 15,5 C 27,2 C
23.05.2012 12:11 27,4 C 49 % 1021,4 hPa 0,0 l/m 6,8 km/h (2 Bft) O-NO 67 15,7 C 27,4 C
23.05.2012 12:16 27,5 C 49 % 1021,4 hPa 0,0 l/m 5,0 km/h (1 Bft) O-NO 67 15,8 C 27,5 C
23.05.2012 12:21 27,8 C 49 % 1021,2 hPa 0,0 l/m 5,8 km/h (2 Bft) N-NO 22 16,1 C 27,8 C
23.05.2012 12:26 27,9 C 48 % 1021,3 hPa 0,0 l/m 8,6 km/h (2 Bft) O-NO 67 15,9 C 27,9 C
23.05.2012 12:31 27,9 C 46 % 1021,4 hPa 0,0 l/m 5,0 km/h (1 Bft) O-SO 112 15,2 C 27,9 C
23.05.2012 12:36 27,9 C 47 % 1021,4 hPa 0,0 l/m 5,0 km/h (1 Bft) S-SO 157 15,5 C 27,9 C
23.05.2012 12:41 28,2 C 46 % 1021,4 hPa 0,0 l/m 4,7 km/h (1 Bft) O-NO 67 15,5 C 28,2 C
23.05.2012 12:46 28,4 C 47 % 1021,4 hPa 0,0 l/m 15,1 km/h (3 Bft) O-SO 112 16,0 C 28,4 C
23.05.2012 12:51 28,4 C 46 % 1021,5 hPa 0,0 l/m 2,9 km/h (1 Bft) SO 135 15,6 C 28,4 C
23.05.2012 12:56 28,4 C 46 % 1021,5 hPa 0,0 l/m 8,3 km/h (2 Bft) O-NO 67 15,6 C 28,4 C
23.05.2012 13:01 28,5 C 46 % 1021,5 hPa 0,0 l/m 11,9 km/h (2 Bft) N-NO 22 15,7 C 28,5 C
23.05.2012 13:06 28,5 C 47 % 1021,5 hPa 0,0 l/m 7,2 km/h (2 Bft) O 90 16,1 C 28,5 C
23.05.2012 13:11 28,6 C 47 % 1021,4 hPa 0,0 l/m 5,0 km/h (1 Bft) O 90 16,2 C 28,6 C
23.05.2012 13:16 28,6 C 47 % 1021,4 hPa 0,0 l/m 7,9 km/h (2 Bft) O 90 16,2 C 28,6 C
23.05.2012 13:21 28,6 C 48 % 1021,4 hPa 0,0 l/m 6,1 km/h (2 Bft) O 90 16,5 C 28,6 C
23.05.2012 13:26 28,9 C 48 % 1021,3 hPa 0,0 l/m 2,9 km/h (1 Bft) O-NO 67 16,8 C 28,9 C
23.05.2012 13:31 28,9 C 47 % 1021,4 hPa 0,0 l/m 7,2 km/h (2 Bft) NO 45 16,4 C 28,9 C
23.05.2012 13:36 29,0 C 48 % 1021,4 hPa 0,0 l/m 3,6 km/h (1 Bft) S 180 16,9 C 29,0 C
23.05.2012 13:41 29,3 C 47 % 1021,4 hPa 0,0 l/m 2,5 km/h (1 Bft) O-NO 67 16,8 C 29,3 C
23.05.2012 13:46 29,4 C 46 % 1021,4 hPa 0,0 l/m 4,3 km/h (1 Bft) O-NO 67 16,5 C 29,4 C
23.05.2012 13:51 29,3 C 46 % 1021,5 hPa 0,0 l/m 7,6 km/h (2 Bft) NO 45 16,5 C 29,3 C
23.05.2012 13:56 29,2 C 47 % 1021,5 hPa 0,0 l/m 5,4 km/h (1 Bft) O-NO 67 16,7 C 29,2 C
23.05.2012 14:01 29,5 C 47 % 1021,4 hPa 0,0 l/m 6,8 km/h (2 Bft) N-NO 22 17,0 C 29,5 C
23.05.2012 14:06 29,8 C 45 % 1021,4 hPa 0,0 l/m 4,0 km/h (1 Bft) NO 45 16,6 C 29,8 C
23.05.2012 14:11 29,9 C 45 % 1021,4 hPa 0,0 l/m 7,6 km/h (2 Bft) NO 45 16,7 C 29,9 C
23.05.2012 14:16 30,1 C 44 % 1021,4 hPa 0,0 l/m 6,1 km/h (2 Bft) NO 45 16,5 C 30,1 C
23.05.2012 14:21 30,1 C 44 % 1021,4 hPa 0,0 l/m 15,8 km/h (3 Bft) O-NO 67 16,5 C 30,1 C
23.05.2012 14:26 30,1 C 43 % 1021,5 hPa 0,0 l/m 7,6 km/h (2 Bft) O-NO 67 16,1 C 30,1 C
23.05.2012 14:31 30,1 C 42 % 1021,6 hPa 0,0 l/m 2,2 km/h (1 Bft) O-SO 112 15,7 C 30,1 C
23.05.2012 14:36 30,3 C 42 % 1021,5 hPa 0,0 l/m 8,6 km/h (2 Bft) O-NO 67 15,9 C 30,3 C
23.05.2012 14:41 30,3 C 42 % 1021,5 hPa 0,0 l/m 6,8 km/h (2 Bft) NO 45 15,9 C 30,3 C
23.05.2012 14:46 30,4 C 41 % 1021,6 hPa 0,0 l/m 7,6 km/h (2 Bft) O-NO 67 15,6 C 30,4 C
23.05.2012 14:51 30,3 C 41 % 1021,5 hPa 0,0 l/m 5,4 km/h (1 Bft) O-NO 67 15,6 C 30,3 C
23.05.2012 14:56 30,4 C 39 % 1021,5 hPa 0,0 l/m 19,1 km/h (3 Bft) O-NO 67 14,9 C 30,4 C
23.05.2012 15:01 30,4 C 40 % 1021,5 hPa 0,0 l/m 9,7 km/h (2 Bft) O-SO 112 15,3 C 30,4 C
23.05.2012 15:06 30,4 C 39 % 1021,5 hPa 0,0 l/m 5,4 km/h (1 Bft) N-NO 22 14,9 C 30,4 C
23.05.2012 15:11 30,4 C 39 % 1021,5 hPa 0,0 l/m 8,6 km/h (2 Bft) O-NO 67 14,9 C 30,4 C
23.05.2012 15:16 30,4 C 39 % 1021,5 hPa 0,0 l/m 4,3 km/h (1 Bft) SO 135 14,9 C 30,4 C
23.05.2012 15:21 30,6 C 38 % 1021,5 hPa 0,0 l/m 13,0 km/h (3 Bft) O-NO 67 14,6 C 30,6 C
23.05.2012 15:26 30,8 C 38 % 1021,5 hPa 0,0 l/m 10,1 km/h (2 Bft) O-NO 67 14,8 C 30,8 C
23.05.2012 15:31 30,8 C 39 % 1021,4 hPa 0,0 l/m 8,6 km/h (2 Bft) NO 45 15,2 C 30,8 C
23.05.2012 15:36 30,6 C 41 % 1021,5 hPa 0,0 l/m 8,6 km/h (2 Bft) O-NO 67 15,8 C 30,6 C
23.05.2012 15:41 30,6 C 41 % 1021,5 hPa 0,0 l/m 7,2 km/h (2 Bft) NO 45 15,8 C 30,6 C
23.05.2012 15:46 30,5 C 41 % 1021,4 hPa 0,0 l/m 18,0 km/h (3 Bft) NO 45 15,7 C 30,5 C
23.05.2012 15:51 30,3 C 41 % 1021,4 hPa 0,0 l/m 18,4 km/h (3 Bft) N-NO 22 15,6 C 30,3 C
23.05.2012 15:56 30,2 C 41 % 1021,5 hPa 0,0 l/m 22,0 km/h (4 Bft) N-NO 22 15,5 C 30,2 C
23.05.2012 16:01 30,2 C 41 % 1021,4 hPa 0,0 l/m 11,9 km/h (2 Bft) NO 45 15,5 C 30,2 C
23.05.2012 16:06 30,1 C 41 % 1021,7 hPa 0,0 l/m 6,5 km/h (2 Bft) N-NO 22 15,4 C 30,1 C
23.05.2012 16:11 30,2 C 41 % 1021,7 hPa 0,0 l/m 10,1 km/h (2 Bft) O 90 15,5 C 30,2 C
23.05.2012 16:16 30,1 C 39 % 1021,7 hPa 0,0 l/m 9,7 km/h (2 Bft) N-NO 22 14,6 C 30,1 C
23.05.2012 16:21 30,1 C 41 % 1021,7 hPa 0,0 l/m 10,4 km/h (2 Bft) O 90 15,4 C 30,1 C
23.05.2012 16:26 30,1 C 41 % 1021,7 hPa 0,0 l/m 6,5 km/h (2 Bft) O 90 15,4 C 30,1 C
23.05.2012 16:31 29,9 C 42 % 1021,7 hPa 0,0 l/m 6,8 km/h (2 Bft) N 360 15,6 C 29,9 C
23.05.2012 16:36 29,9 C 42 % 1021,6 hPa 0,0 l/m 16,9 km/h (3 Bft) O 90 15,6 C 29,9 C
23.05.2012 16:41 29,9 C 42 % 1021,7 hPa 0,0 l/m 10,4 km/h (2 Bft) O-NO 67 15,6 C 29,9 C
23.05.2012 16:46 29,6 C 43 % 1021,7 hPa 0,0 l/m 13,3 km/h (3 Bft) O 90 15,7 C 29,6 C
23.05.2012 16:51 29,6 C 43 % 1021,8 hPa 0,0 l/m 14,8 km/h (3 Bft) N-NO 22 15,7 C 29,6 C
23.05.2012 16:56 29,6 C 42 % 1021,9 hPa 0,0 l/m 8,6 km/h (2 Bft) NO 45 15,3 C 29,6 C
23.05.2012 17:01 29,6 C 42 % 1021,9 hPa 0,0 l/m 15,5 km/h (3 Bft) O-NO 67 15,3 C 29,6 C
23.05.2012 17:06 29,6 C 42 % 1022,2 hPa 0,0 l/m 18,4 km/h (3 Bft) O-NO 67 15,3 C 29,6 C
23.05.2012 17:11 29,4 C 42 % 1022,1 hPa 0,0 l/m 6,8 km/h (2 Bft) N-NO 22 15,1 C 29,4 C
23.05.2012 17:16 29,6 C 42 % 1022,2 hPa 0,0 l/m 18,4 km/h (3 Bft) NO 45 15,3 C 29,6 C
23.05.2012 17:21 29,5 C 42 % 1022,1 hPa 0,0 l/m 10,8 km/h (2 Bft) NO 45 15,2 C 29,5 C
23.05.2012 17:26 29,5 C 40 % 1022,3 hPa 0,0 l/m 15,8 km/h (3 Bft) NO 45 14,5 C 29,5 C
23.05.2012 17:31 29,3 C 41 % 1022,2 hPa 0,0 l/m 10,4 km/h (2 Bft) O-NO 67 14,7 C 29,3 C
23.05.2012 17:36 29,1 C 42 % 1022,4 hPa 0,0 l/m 11,5 km/h (2 Bft) O 90 14,9 C 29,1 C
23.05.2012 17:41 28,9 C 44 % 1022,4 hPa 0,0 l/m 20,9 km/h (4 Bft) O-NO 67 15,4 C 28,9 C
23.05.2012 17:46 28,8 C 45 % 1022,5 hPa 0,0 l/m 10,1 km/h (2 Bft) O 90 15,7 C 28,8 C
23.05.2012 17:51 28,5 C 45 % 1022,5 hPa 0,0 l/m 13,7 km/h (3 Bft) O-NO 67 15,4 C 28,5 C
23.05.2012 17:56 28,3 C 44 % 1022,6 hPa 0,0 l/m 7,2 km/h (2 Bft) N 360 14,9 C 28,3 C
23.05.2012 18:01 28,2 C 44 % 1022,6 hPa 0,0 l/m 13,0 km/h (3 Bft) O-NO 67 14,8 C 28,2 C
23.05.2012 18:06 27,9 C 46 % 1022,6 hPa 0,0 l/m 7,2 km/h (2 Bft) N 360 15,2 C 27,9 C
23.05.2012 18:11 27,9 C 47 % 1022,7 hPa 0,0 l/m 8,6 km/h (2 Bft) O-SO 112 15,5 C 27,9 C
23.05.2012 18:16 27,8 C 48 % 1022,8 hPa 0,0 l/m 10,8 km/h (2 Bft) N 360 15,8 C 27,8 C
23.05.2012 18:21 27,5 C 48 % 1022,9 hPa 0,0 l/m 15,5 km/h (3 Bft) O 90 15,5 C 27,5 C
23.05.2012 18:26 27,4 C 48 % 1022,9 hPa 0,0 l/m 7,6 km/h (2 Bft) N-NO 22 15,4 C 27,4 C
23.05.2012 18:31 27,3 C 48 % 1023,1 hPa 0,0 l/m 18,7 km/h (3 Bft) NO 45 15,3 C 27,3 C
23.05.2012 18:36 27,2 C 48 % 1023,1 hPa 0,0 l/m 25,2 km/h (4 Bft) O 90 15,2 C 27,2 C
23.05.2012 18:41 26,9 C 48 % 1023,2 hPa 0,0 l/m 19,1 km/h (3 Bft) N 360 14,9 C 26,9 C
23.05.2012 18:46 26,7 C 46 % 1023,3 hPa 0,0 l/m 11,5 km/h (2 Bft) N-NO 22 14,1 C 26,7 C
23.05.2012 18:51 26,4 C 46 % 1023,3 hPa 0,0 l/m 27,4 km/h (4 Bft) O 90 13,8 C 26,4 C
23.05.2012 18:56 26,2 C 47 % 1023,2 hPa 0,0 l/m 11,2 km/h (2 Bft) O-SO 112 14,0 C 26,2 C
23.05.2012 19:01 26,1 C 48 % 1023,4 hPa 0,0 l/m 9,7 km/h (2 Bft) O-NO 67 14,2 C 26,1 C
23.05.2012 19:06 26,1 C 48 % 1023,5 hPa 0,0 l/m 19,1 km/h (3 Bft) O-NO 67 14,2 C 26,1 C
23.05.2012 19:11 25,9 C 48 % 1023,4 hPa 0,0 l/m 20,5 km/h (4 Bft) NO 45 14,0 C 25,9 C
23.05.2012 19:16 25,7 C 46 % 1023,5 hPa 0,0 l/m 12,2 km/h (2 Bft) O-NO 67 13,2 C 25,7 C
23.05.2012 19:21 25,4 C 46 % 1023,7 hPa 0,0 l/m 8,6 km/h (2 Bft) O 90 12,9 C 25,4 C
23.05.2012 19:26 25,2 C 46 % 1023,8 hPa 0,0 l/m 14,8 km/h (3 Bft) O-NO 67 12,7 C 25,2 C
23.05.2012 19:31 25,1 C 47 % 1023,9 hPa 0,0 l/m 13,3 km/h (3 Bft) NO 45 13,0 C 25,1 C
23.05.2012 19:36 24,9 C 47 % 1023,9 hPa 0,0 l/m 10,1 km/h (2 Bft) NO 45 12,8 C 24,9 C
23.05.2012 19:41 24,9 C 47 % 1024,0 hPa 0,0 l/m 8,3 km/h (2 Bft) N-NO 22 12,8 C 24,9 C
23.05.2012 19:46 24,7 C 46 % 1023,9 hPa 0,0 l/m 18,0 km/h (3 Bft) O-NO 67 12,3 C 24,7 C
23.05.2012 19:51 24,4 C 46 % 1023,9 hPa 0,0 l/m 18,7 km/h (3 Bft) O-NO 67 12,0 C 24,4 C
23.05.2012 19:56 24,3 C 47 % 1024,0 hPa 0,0 l/m 14,4 km/h (3 Bft) N-NO 22 12,3 C 24,3 C
23.05.2012 20:01 24,1 C 47 % 1024,0 hPa 0,0 l/m 7,2 km/h (2 Bft) O-SO 112 12,1 C 24,1 C
23.05.2012 20:06 23,9 C 48 % 1024,2 hPa 0,0 l/m 9,4 km/h (2 Bft) O-NO 67 12,2 C 23,9 C
23.05.2012 20:11 23,8 C 48 % 1024,2 hPa 0,0 l/m 15,8 km/h (3 Bft) O-NO 67 12,1 C 23,8 C
23.05.2012 20:16 23,4 C 48 % 1024,0 hPa 0,0 l/m 22,7 km/h (4 Bft) NO 45 11,8 C 23,4 C
23.05.2012 20:21 23,1 C 49 % 1024,1 hPa 0,0 l/m 10,4 km/h (2 Bft) NO 45 11,8 C 23,1 C
23.05.2012 20:26 22,9 C 49 % 1024,2 hPa 0,0 l/m 7,6 km/h (2 Bft) O-NO 67 11,6 C 22,9 C
23.05.2012 20:31 22,7 C 50 % 1024,3 hPa 0,0 l/m 4,7 km/h (1 Bft) NO 45 11,7 C 22,7 C
23.05.2012 20:36 22,5 C 51 % 1024,4 hPa 0,0 l/m 13,3 km/h (3 Bft) O-NO 67 11,8 C 22,5 C
23.05.2012 20:41 22,4 C 51 % 1024,4 hPa 0,0 l/m 7,2 km/h (2 Bft) NO 45 11,8 C 22,4 C
23.05.2012 20:46 22,3 C 52 % 1024,3 hPa 0,0 l/m 7,2 km/h (2 Bft) N-NO 22 12,0 C 22,3 C
23.05.2012 20:51 22,3 C 52 % 1024,4 hPa 0,0 l/m 16,9 km/h (3 Bft) NO 45 12,0 C 22,3 C
23.05.2012 20:56 22,1 C 53 % 1024,5 hPa 0,0 l/m 5,8 km/h (2 Bft) O 90 12,1 C 22,1 C
23.05.2012 21:01 21,9 C 53 % 1024,5 hPa 0,0 l/m 14,8 km/h (3 Bft) N-NW 337 11,9 C 21,9 C
23.05.2012 21:06 21,8 C 53 % 1024,6 hPa 0,0 l/m 6,5 km/h (2 Bft) O-NO 67 11,8 C 21,8 C
23.05.2012 21:11 21,6 C 53 % 1024,7 hPa 0,0 l/m 7,6 km/h (2 Bft) O-SO 112 11,6 C 21,6 C
23.05.2012 21:16 21,5 C 54 % 1024,9 hPa 0,0 l/m 7,6 km/h (2 Bft) NO 45 11,8 C 21,5 C
23.05.2012 21:21 21,3 C 55 % 1024,9 hPa 0,0 l/m 15,5 km/h (3 Bft) O 90 11,9 C 21,3 C
23.05.2012 21:26 21,1 C 55 % 1025,0 hPa 0,0 l/m 11,9 km/h (2 Bft) O-NO 67 11,7 C 21,1 C
23.05.2012 21:31 21,0 C 56 % 1025,1 hPa 0,0 l/m 7,2 km/h (2 Bft) O-NO 67 11,9 C 21,0 C
23.05.2012 21:36 20,9 C 56 % 1025,1 hPa 0,0 l/m 6,8 km/h (2 Bft) O-SO 112 11,8 C 20,9 C
23.05.2012 21:41 20,8 C 56 % 1025,1 hPa 0,0 l/m 7,2 km/h (2 Bft) O-NO 67 11,7 C 20,8 C
23.05.2012 21:46 20,6 C 57 % 1025,3 hPa 0,0 l/m 10,8 km/h (2 Bft) O-NO 67 11,8 C 20,6 C
23.05.2012 21:51 20,5 C 58 % 1025,4 hPa 0,0 l/m 10,4 km/h (2 Bft) O-NO 67 11,9 C 20,5 C
23.05.2012 21:56 20,4 C 58 % 1025,4 hPa 0,0 l/m 5,4 km/h (1 Bft) O 90 11,9 C 20,4 C
23.05.2012 22:01 20,3 C 58 % 1025,4 hPa 0,0 l/m 7,9 km/h (2 Bft) O 90 11,8 C 20,3 C
23.05.2012 22:06 20,1 C 59 % 1025,4 hPa 0,0 l/m 12,2 km/h (2 Bft) O 90 11,8 C 20,1 C
23.05.2012 22:11 20,0 C 59 % 1025,4 hPa 0,0 l/m 7,2 km/h (2 Bft) O 90 11,7 C 20,0 C
23.05.2012 22:16 19,9 C 60 % 1025,5 hPa 0,0 l/m 5,4 km/h (1 Bft) O-NO 67 11,9 C 19,9 C
23.05.2012 22:21 19,8 C 61 % 1025,6 hPa 0,0 l/m 13,7 km/h (3 Bft) O-NO 67 12,1 C 19,8 C
23.05.2012 22:26 19,6 C 61 % 1025,6 hPa 0,0 l/m 6,8 km/h (2 Bft) O-SO 112 11,9 C 19,6 C
23.05.2012 22:31 19,4 C 62 % 1025,7 hPa 0,0 l/m 10,1 km/h (2 Bft) NO 45 11,9 C 19,4 C
23.05.2012 22:36 19,3 C 62 % 1025,8 hPa 0,0 l/m 6,8 km/h (2 Bft) O-NO 67 11,8 C 19,3 C
23.05.2012 22:41 19,1 C 62 % 1025,8 hPa 0,0 l/m 10,1 km/h (2 Bft) O 90 11,6 C 19,1 C
23.05.2012 22:46 19,0 C 62 % 1025,9 hPa 0,0 l/m 11,2 km/h (2 Bft) O 90 11,6 C 19,0 C
23.05.2012 22:51 18,9 C 62 % 1025,9 hPa 0,0 l/m 8,6 km/h (2 Bft) O-NO 67 11,5 C 18,9 C
23.05.2012 22:56 18,8 C 62 % 1025,9 hPa 0,0 l/m 3,6 km/h (1 Bft) O-NO 67 11,4 C 18,8 C
23.05.2012 23:01 18,7 C 62 % 1026,0 hPa 0,0 l/m 13,3 km/h (3 Bft) O 90 11,3 C 18,7 C
23.05.2012 23:06 18,6 C 62 % 1026,2 hPa 0,0 l/m 14,4 km/h (3 Bft) O-NO 67 11,2 C 18,6 C
23.05.2012 23:11 18,5 C 62 % 1026,2 hPa 0,0 l/m 6,1 km/h (2 Bft) NO 45 11,1 C 18,5 C
23.05.2012 23:16 18,4 C 62 % 1026,3 hPa 0,0 l/m 8,3 km/h (2 Bft) N 360 11,0 C 18,4 C
23.05.2012 23:21 18,4 C 62 % 1026,3 hPa 0,0 l/m 5,0 km/h (1 Bft) O 90 11,0 C 18,4 C
23.05.2012 23:26 18,3 C 62 % 1026,5 hPa 0,0 l/m 5,4 km/h (1 Bft) O 90 10,9 C 18,3 C
23.05.2012 23:31 18,3 C 62 % 1026,5 hPa 0,0 l/m 4,3 km/h (1 Bft) O-SO 112 10,9 C 18,3 C
23.05.2012 23:36 18,2 C 62 % 1026,3 hPa 0,0 l/m 5,8 km/h (2 Bft) O-SO 112 10,8 C 18,2 C
23.05.2012 23:41 18,1 C 62 % 1026,4 hPa 0,0 l/m 3,6 km/h (1 Bft) O 90 10,7 C 18,1 C
23.05.2012 23:46 17,9 C 62 % 1026,6 hPa 0,0 l/m 4,7 km/h (1 Bft) N-NO 22 10,5 C 17,9 C
23.05.2012 23:51 17,9 C 62 % 1026,5 hPa 0,0 l/m 6,1 km/h (2 Bft) O-SO 112 10,5 C 17,9 C
23.05.2012 23:56 17,9 C 62 % 1026,5 hPa 0,0 l/m 2,2 km/h (1 Bft) O 90 10,5 C 17,9 C
_ Min-Zeit 05:11 15:21 00:06 - 00:06 - - 23:46 05:11
Minimum _ 15,6 C 38 % 1014,6 hPa - 0,0 km/h (0 Bft) - - 10,5 C 15,6 C
_ Max-Zeit 15:26 05:06 23:46 00:01 18:51 - - 14:01 15:26
Maximum _ 30,8 C 79 % 1026,6 hPa 0,0 l/m 27,4 km/h
O (4 Bft)
- - 17,0 C 30,8 C
Durchschnitt _ 22,7 C 59 % 1020,6 hPa #0,0 l/m 6,9 km/h (2 Bft) O-NO - 13,8 C 22,7 C
(c) by David Heller